createdAt,value
2019-03-12T00:00:10.988Z,4.31
2019-03-12T00:02:39.409Z,4.25
2019-03-12T00:05:09.029Z,4.20
2019-03-12T00:07:37.529Z,4.15
2019-03-12T00:10:08.623Z,4.08
2019-03-12T00:12:37.047Z,4.09
2019-03-12T00:15:06.974Z,4.04
2019-03-12T00:17:35.462Z,3.98
2019-03-12T00:20:05.624Z,4.03
2019-03-12T00:22:34.049Z,3.95
2019-03-12T00:25:02.431Z,3.87
2019-03-12T00:27:30.846Z,3.84
2019-03-12T00:29:59.253Z,3.86
2019-03-12T00:32:27.683Z,3.79
2019-03-12T00:34:56.081Z,3.83
2019-03-12T00:37:24.491Z,3.84
2019-03-12T00:39:52.892Z,3.83
2019-03-12T00:42:21.361Z,3.83
2019-03-12T00:44:49.742Z,3.89
2019-03-12T00:47:18.157Z,3.83
2019-03-12T00:49:46.562Z,3.86
2019-03-12T00:52:14.949Z,3.87
2019-03-12T00:54:43.437Z,3.79
2019-03-12T00:57:11.915Z,3.88
2019-03-12T00:59:40.317Z,3.90
2019-03-12T01:02:08.724Z,3.91
2019-03-12T01:04:37.275Z,3.90
2019-03-12T01:07:05.689Z,3.97
2019-03-12T01:09:34.121Z,3.93
2019-03-12T01:12:02.535Z,3.88
2019-03-12T01:14:30.942Z,3.86
2019-03-12T01:16:59.323Z,3.76
2019-03-12T01:19:27.734Z,3.81
2019-03-12T01:21:56.152Z,3.88
2019-03-12T01:24:24.555Z,3.84
2019-03-12T01:26:52.943Z,3.88
2019-03-12T01:29:21.363Z,3.87
2019-03-12T01:31:49.757Z,3.85
2019-03-12T01:34:18.201Z,3.78
2019-03-12T01:36:46.678Z,3.84
2019-03-12T01:39:15.261Z,3.92
2019-03-12T01:41:43.656Z,3.92
2019-03-12T01:44:12.059Z,3.93
2019-03-12T01:46:40.464Z,3.88
2019-03-12T01:49:08.853Z,3.93
2019-03-12T01:51:37.270Z,4.01
2019-03-12T01:54:05.654Z,4.02
2019-03-12T01:56:34.054Z,4.09
2019-03-12T01:59:02.450Z,4.08
2019-03-12T02:01:30.852Z,4.13
2019-03-12T02:03:59.243Z,4.13
2019-03-12T02:06:27.657Z,4.16
2019-03-12T02:08:56.063Z,4.18
2019-03-12T02:11:24.565Z,4.17
2019-03-12T02:13:52.953Z,4.18
2019-03-12T02:16:21.340Z,4.17
2019-03-12T02:18:49.803Z,4.14
2019-03-12T02:21:18.224Z,4.14
2019-03-12T02:23:46.711Z,4.11
2019-03-12T02:26:15.142Z,4.05
2019-03-12T02:28:43.598Z,4.03
2019-03-12T02:31:12.056Z,3.97
2019-03-12T02:33:40.445Z,3.91
2019-03-12T02:36:08.938Z,3.91
2019-03-12T02:38:37.333Z,3.86
2019-03-12T02:41:05.814Z,3.83
2019-03-12T02:43:34.209Z,3.75
2019-03-12T02:46:02.583Z,3.71
2019-03-12T02:48:30.977Z,3.59
2019-03-12T02:50:59.365Z,3.58
2019-03-12T02:53:27.772Z,3.51
2019-03-12T02:55:56.178Z,3.51
2019-03-12T02:58:24.583Z,3.48
2019-03-12T03:00:52.967Z,3.44
2019-03-12T03:03:21.384Z,3.35
2019-03-12T03:05:51.435Z,3.35
2019-03-12T03:08:21.485Z,3.36
2019-03-12T03:10:49.878Z,3.34
2019-03-12T03:13:18.289Z,3.24
2019-03-12T03:15:47.511Z,3.21
2019-03-12T03:18:15.877Z,3.16
2019-03-12T03:20:44.274Z,3.17
2019-03-12T03:23:12.648Z,3.16
2019-03-12T03:25:41.072Z,3.20
2019-03-12T03:28:09.449Z,3.16
2019-03-12T03:30:37.960Z,3.10
2019-03-12T03:33:06.410Z,3.05
2019-03-12T03:35:34.800Z,3.12
2019-03-12T03:38:03.243Z,3.06
2019-03-12T03:40:31.687Z,2.90
2019-03-12T03:43:00.108Z,2.97
2019-03-12T03:45:28.571Z,2.90
2019-03-12T03:47:56.966Z,2.92
2019-03-12T03:50:25.428Z,2.87
2019-03-12T03:52:53.813Z,2.68
2019-03-12T03:55:23.173Z,2.59
2019-03-12T03:57:51.621Z,2.55
2019-03-12T04:00:24.209Z,2.38
2019-03-12T04:02:52.666Z,2.44
2019-03-12T04:05:21.324Z,2.39
2019-03-12T04:07:49.709Z,2.29
2019-03-12T04:10:18.310Z,2.36
2019-03-12T04:12:46.709Z,2.19
2019-03-12T04:15:16.591Z,2.19
2019-03-12T04:17:45.050Z,2.18
2019-03-12T04:20:15.085Z,2.06
2019-03-12T04:22:43.630Z,1.99
2019-03-12T04:28:34.368Z,1.85
2019-03-12T04:31:02.782Z,1.76
2019-03-12T04:33:59.514Z,1.73
2019-03-12T04:36:27.948Z,1.70
2019-03-12T04:38:56.354Z,1.76
2019-03-12T04:41:24.761Z,1.72
2019-03-12T04:43:53.160Z,1.32
2019-03-12T04:46:21.569Z,1.62
2019-03-12T04:48:49.963Z,1.61
2019-03-12T04:51:18.356Z,1.54
2019-03-12T04:53:46.758Z,1.41
2019-03-12T04:56:15.151Z,1.45
2019-03-12T04:58:43.543Z,1.45
2019-03-12T05:01:11.949Z,1.38
2019-03-12T05:03:40.415Z,1.53
2019-03-12T05:06:08.817Z,1.47
2019-03-12T05:08:37.231Z,1.40
2019-03-12T05:11:05.642Z,1.23
2019-03-12T05:13:34.034Z,1.15
2019-03-12T05:16:02.505Z,1.19
2019-03-12T05:18:30.900Z,1.10
2019-03-12T05:20:59.301Z,1.07
2019-03-12T05:23:27.721Z,1.06
2019-03-12T05:25:56.119Z,0.95
2019-03-12T05:28:24.603Z,0.88
2019-03-12T05:30:52.990Z,0.86
2019-03-12T05:33:21.394Z,0.83
2019-03-12T05:35:49.792Z,0.80
2019-03-12T05:38:18.185Z,0.85
2019-03-12T05:40:46.594Z,0.80
2019-03-12T05:43:15.087Z,0.70
2019-03-12T05:45:43.498Z,0.65
2019-03-12T05:48:11.917Z,0.65
2019-03-12T05:50:40.304Z,0.72
2019-03-12T05:53:13.318Z,0.73
2019-03-12T05:55:41.743Z,0.66
2019-03-12T05:58:10.169Z,0.68
2019-03-12T06:00:38.710Z,0.73
2019-03-12T06:03:07.873Z,0.78
2019-03-12T06:05:36.341Z,0.81
2019-03-12T06:08:04.908Z,0.93
2019-03-12T06:10:33.337Z,0.99
2019-03-12T06:13:01.772Z,1.08
2019-03-12T06:15:30.239Z,1.19
2019-03-12T06:17:58.639Z,1.35
2019-03-12T06:20:27.062Z,1.48
2019-03-12T06:22:55.470Z,1.72
2019-03-12T06:25:23.891Z,1.91
2019-03-12T06:27:52.324Z,2.09
2019-03-12T06:30:21.180Z,2.27
2019-03-12T06:33:03.257Z,2.47
2019-03-12T06:35:33.386Z,2.70
2019-03-12T06:38:03.439Z,2.84
2019-03-12T06:40:45.684Z,2.94
2019-03-12T06:43:28.038Z,3.13
2019-03-12T06:45:58.074Z,3.31
2019-03-12T06:48:28.136Z,3.47
2019-03-12T06:51:00.734Z,3.67
2019-03-12T06:53:33.663Z,3.85
2019-03-12T06:56:19.602Z,4.11
2019-03-12T06:58:49.649Z,4.37
2019-03-12T07:01:19.761Z,4.70
2019-03-12T07:03:55.559Z,4.86
2019-03-12T07:06:41.758Z,5.04
2019-03-12T07:09:24.018Z,5.12
2019-03-12T07:11:59.946Z,5.29
2019-03-12T07:14:32.654Z,5.33
2019-03-12T07:17:05.428Z,5.30
2019-03-12T07:19:50.700Z,5.25
2019-03-12T07:22:36.979Z,5.34
2019-03-12T07:25:16.027Z,5.54
2019-03-12T07:27:49.054Z,5.51
2019-03-12T07:30:24.846Z,5.50
2019-03-12T07:33:06.368Z,5.41
2019-03-12T07:35:39.127Z,5.72
2019-03-12T07:38:25.171Z,6.91
2019-03-12T07:41:01.060Z,8.64
2019-03-12T07:43:31.152Z,10.34
2019-03-12T07:46:09.677Z,11.53
2019-03-12T07:48:51.609Z,11.80
2019-03-12T07:51:21.650Z,13.28
2019-03-12T07:54:07.564Z,12.93
2019-03-12T07:56:43.376Z,11.96
2019-03-12T07:59:13.418Z,11.88
2019-03-12T08:01:43.471Z,11.45
2019-03-12T08:04:25.843Z,11.45
2019-03-12T08:06:58.942Z,12.05
2019-03-12T08:09:29.029Z,12.05
2019-03-12T08:12:01.923Z,12.18
2019-03-12T08:14:31.921Z,12.71
2019-03-12T08:17:07.819Z,13.54
2019-03-12T08:19:43.730Z,14.05
2019-03-12T08:22:29.949Z,14.63
2019-03-12T08:25:05.875Z,15.07
2019-03-12T08:27:51.902Z,15.71
2019-03-12T08:30:37.109Z,15.83
2019-03-12T08:33:16.018Z,16.78
2019-03-12T08:35:48.989Z,17.57
2019-03-12T08:38:35.208Z,16.15
2019-03-12T08:41:14.443Z,16.59
2019-03-12T08:43:44.498Z,17.05
2019-03-12T08:46:23.239Z,17.39
2019-03-12T08:49:05.268Z,18.60
2019-03-12T08:51:35.350Z,18.40
2019-03-12T08:54:08.702Z,17.92
2019-03-12T08:56:51.169Z,16.92
2019-03-12T08:59:33.119Z,16.26
2019-03-12T09:02:06.147Z,16.39
2019-03-12T09:04:41.956Z,16.28
2019-03-12T09:07:17.526Z,16.31
2019-03-12T09:10:03.770Z,16.21
2019-03-12T09:12:43.159Z,16.52
2019-03-12T09:15:16.071Z,16.76
2019-03-12T09:17:46.202Z,17.66
2019-03-12T09:20:31.353Z,18.35
2019-03-12T09:23:07.359Z,17.28
2019-03-12T09:25:46.541Z,16.99
2019-03-12T09:28:25.342Z,17.64
2019-03-12T09:31:01.077Z,17.91
2019-03-12T09:33:33.827Z,17.61
2019-03-12T09:36:03.948Z,18.19
2019-03-12T09:38:35.608Z,18.50
2019-03-12T09:41:20.675Z,17.90
2019-03-12T09:43:50.777Z,19.33
2019-03-12T09:46:33.073Z,19.24
2019-03-12T09:49:19.698Z,19.62
2019-03-12T09:52:01.555Z,20.07
2019-03-12T09:54:31.594Z,21.65
2019-03-12T09:57:19.515Z,21.36
2019-03-12T09:59:55.180Z,20.75
2019-03-12T10:02:40.358Z,18.20
2019-03-12T10:05:19.527Z,16.38
2019-03-12T10:08:01.583Z,16.49
2019-03-12T10:10:34.569Z,16.28
2019-03-12T10:13:10.601Z,17.02
2019-03-12T10:15:49.427Z,16.67
2019-03-12T10:18:25.066Z,16.54
2019-03-12T10:21:00.604Z,18.13
2019-03-12T10:23:33.346Z,17.79
2019-03-12T10:26:12.214Z,16.20
2019-03-12T10:28:51.292Z,15.74
2019-03-12T10:31:37.546Z,17.32
2019-03-12T10:34:07.603Z,18.01
2019-03-12T10:36:37.649Z,17.01
2019-03-12T10:39:59.450Z,17.20
2019-03-12T10:42:35.268Z,19.27
2019-03-12T10:45:06.182Z,20.49
2019-03-12T10:47:45.261Z,20.65
2019-03-12T10:50:14.253Z,18.59
2019-03-12T10:52:42.688Z,17.24
2019-03-12T10:55:13.631Z,17.35
2019-03-12T10:57:41.475Z,16.98
2019-03-12T11:00:15.556Z,16.22
2019-03-12T11:02:44.020Z,16.33
2019-03-12T11:05:12.566Z,17.12
2019-03-12T11:07:40.992Z,16.11
2019-03-12T11:10:17.390Z,15.22
2019-03-12T11:12:45.801Z,15.58
2019-03-12T11:15:15.452Z,16.13
2019-03-12T11:17:49.336Z,16.57
2019-03-12T11:20:19.934Z,17.67
2019-03-12T11:22:48.355Z,18.21
2019-03-12T11:25:26.399Z,17.15
2019-03-12T11:27:46.876Z,16.51
2019-03-12T11:30:19.119Z,15.88
2019-03-12T11:32:47.515Z,15.95
2019-03-12T11:35:15.917Z,15.63
2019-03-12T11:37:44.381Z,15.55
2019-03-12T11:40:25.460Z,14.83
2019-03-12T11:42:54.339Z,14.15
2019-03-12T11:45:35.473Z,14.24
2019-03-12T11:47:53.132Z,13.83
2019-03-12T11:50:23.175Z,13.82
2019-03-12T11:52:55.698Z,13.56
2019-03-12T11:55:21.854Z,13.64
2019-03-12T11:57:50.415Z,14.29
2019-03-12T12:00:35.569Z,15.35
2019-03-12T12:03:04.133Z,14.92
2019-03-12T12:05:32.510Z,13.98
2019-03-12T12:08:00.914Z,13.36
2019-03-12T12:10:29.454Z,12.97
2019-03-12T12:12:57.926Z,13.00
2019-03-12T12:15:27.504Z,13.43
2019-03-12T12:17:55.902Z,15.52
2019-03-12T12:20:29.407Z,16.89
2019-03-12T12:22:54.479Z,17.65
2019-03-12T12:25:22.874Z,19.05
2019-03-12T12:27:51.594Z,18.82
2019-03-12T12:30:20.932Z,18.74
2019-03-12T12:32:49.331Z,18.40
2019-03-12T12:35:17.801Z,17.69
2019-03-12T12:37:46.270Z,17.33
2019-03-12T12:40:19.655Z,17.32
2019-03-12T12:42:48.112Z,17.47
2019-03-12T12:45:28.687Z,16.73
2019-03-12T12:47:57.163Z,16.26
2019-03-12T12:50:25.690Z,16.77
2019-03-12T12:52:54.154Z,16.22
2019-03-12T12:55:22.618Z,15.91
2019-03-12T12:57:51.015Z,16.03
2019-03-12T13:00:25.092Z,15.19
2019-03-12T13:02:53.505Z,14.40
2019-03-12T13:05:22.152Z,13.68
2019-03-12T13:07:50.680Z,13.21
2019-03-12T13:10:35.083Z,12.81
2019-03-12T13:13:03.482Z,12.77
2019-03-12T13:15:31.893Z,12.21
2019-03-12T13:18:00.306Z,12.05
2019-03-12T13:20:28.706Z,11.99
2019-03-12T13:22:57.106Z,12.03
2019-03-12T13:25:25.676Z,12.22
2019-03-12T13:27:54.146Z,12.18
2019-03-12T13:30:23.888Z,12.48
2019-03-12T13:32:52.289Z,12.80
2019-03-12T13:35:21.122Z,12.95
2019-03-12T13:37:50.070Z,13.13
2019-03-12T13:40:22.635Z,14.22
2019-03-12T13:42:51.897Z,15.38
2019-03-12T13:45:28.164Z,15.98
2019-03-12T13:47:57.053Z,17.23
2019-03-12T13:50:25.855Z,18.13
2019-03-12T13:52:54.553Z,18.44
2019-03-12T13:55:23.525Z,19.03
2019-03-12T13:57:52.011Z,19.47
2019-03-12T14:00:28.219Z,18.60
2019-03-12T14:02:56.827Z,17.90
2019-03-12T14:05:25.214Z,19.06
2019-03-12T14:07:53.708Z,19.99
2019-03-12T14:10:26.953Z,20.04
2019-03-12T14:12:56.703Z,19.73
2019-03-12T14:15:27.814Z,19.10
2019-03-12T14:17:56.584Z,17.55
2019-03-12T14:20:39.621Z,18.32
2019-03-12T14:23:08.585Z,19.29
2019-03-12T14:25:37.310Z,19.45
2019-03-12T14:28:05.994Z,18.45
2019-03-12T14:30:34.665Z,18.61
2019-03-12T14:33:03.331Z,18.53
2019-03-12T14:35:31.781Z,17.92
2019-03-12T14:38:00.195Z,17.58
2019-03-12T14:40:28.665Z,17.92
2019-03-12T14:42:57.143Z,18.19
2019-03-12T14:45:29.588Z,19.34
2019-03-12T14:47:58.270Z,19.41
2019-03-12T14:50:28.960Z,19.92
2019-03-12T14:53:07.699Z,20.11
2019-03-12T14:55:36.640Z,20.71
2019-03-12T14:58:05.394Z,20.70
2019-03-12T15:00:33.887Z,21.13
2019-03-12T15:03:02.361Z,20.77
2019-03-12T15:05:30.949Z,20.02
2019-03-12T15:07:59.702Z,18.76
2019-03-12T15:10:28.132Z,17.49
2019-03-12T15:12:56.536Z,16.96
2019-03-12T15:15:25.264Z,16.17
2019-03-12T15:17:53.639Z,16.19
2019-03-12T15:20:22.063Z,16.53
2019-03-12T15:22:50.614Z,15.78
2019-03-12T15:25:19.046Z,14.87
2019-03-12T15:27:47.515Z,14.60
2019-03-12T15:30:24.405Z,13.91
2019-03-12T15:33:02.451Z,13.27
2019-03-12T15:35:31.746Z,12.86
2019-03-12T15:38:00.218Z,12.65
2019-03-12T15:40:28.693Z,12.61
2019-03-12T15:42:57.288Z,12.41
2019-03-12T15:45:25.717Z,12.45
2019-03-12T15:47:54.185Z,12.32
2019-03-12T15:50:22.627Z,12.56
2019-03-12T15:52:51.073Z,12.81
2019-03-12T15:55:19.565Z,12.70
2019-03-12T15:57:47.965Z,12.67
2019-03-12T16:00:17.930Z,12.30
2019-03-12T16:02:46.353Z,12.02
2019-03-12T16:05:14.944Z,11.97
2019-03-12T16:07:43.403Z,11.79
2019-03-12T16:10:20.901Z,11.74
2019-03-12T16:12:49.428Z,11.62
2019-03-12T16:15:18.693Z,11.63
2019-03-12T16:17:47.123Z,11.49
2019-03-12T16:20:22.795Z,11.42
2019-03-12T16:22:51.232Z,11.31
2019-03-12T16:25:19.702Z,11.26
2019-03-12T16:27:48.174Z,11.15
2019-03-12T16:30:18.920Z,11.00
2019-03-12T16:32:47.338Z,11.00
2019-03-12T16:35:16.093Z,10.91
2019-03-12T16:37:44.610Z,10.89
2019-03-12T16:40:17.222Z,10.75
2019-03-12T16:42:45.795Z,10.74
2019-03-12T16:45:18.459Z,10.72
2019-03-12T16:47:46.886Z,10.68
2019-03-12T16:50:16.464Z,10.54
2019-03-12T16:52:45.037Z,10.52
2019-03-12T16:55:18.058Z,10.37
2019-03-12T16:57:46.543Z,10.39
2019-03-12T17:00:19.979Z,10.32
2019-03-12T17:02:48.416Z,10.26
2019-03-12T17:05:16.917Z,10.19
2019-03-12T17:07:45.394Z,10.18
2019-03-12T17:10:18.551Z,10.16
2019-03-12T17:12:47.029Z,10.10
2019-03-12T17:15:20.865Z,10.10
2019-03-12T17:17:49.423Z,10.05
2019-03-12T17:20:18.100Z,9.98
2019-03-12T17:22:46.629Z,9.94
2019-03-12T17:25:15.064Z,9.94
2019-03-12T17:27:43.631Z,9.93
2019-03-12T17:30:23.100Z,9.94
2019-03-12T17:32:51.585Z,9.93
2019-03-12T17:35:37.516Z,9.93
2019-03-12T17:38:05.981Z,9.89
2019-03-12T17:40:34.412Z,9.81
2019-03-12T17:43:02.894Z,9.77
2019-03-12T17:45:31.310Z,9.77
2019-03-12T17:47:59.755Z,9.78
2019-03-12T17:50:28.181Z,9.70
2019-03-12T17:52:56.575Z,9.70
2019-03-12T17:55:24.984Z,9.64
2019-03-12T17:57:53.451Z,9.58
2019-03-12T18:00:27.793Z,9.57
2019-03-12T18:02:54.656Z,9.53
2019-03-12T18:05:23.266Z,9.51
2019-03-12T18:07:51.747Z,9.50
2019-03-12T18:10:20.336Z,9.51
2019-03-12T18:12:48.731Z,9.50
2019-03-12T18:15:21.214Z,9.47
2019-03-12T18:17:49.766Z,9.49
2019-03-12T18:20:24.545Z,9.49
2019-03-12T18:22:52.929Z,9.40
2019-03-12T18:25:30.278Z,9.37
2019-03-12T18:27:58.858Z,9.37
2019-03-12T18:30:27.335Z,9.29
2019-03-12T18:32:55.725Z,9.32
2019-03-12T18:35:24.189Z,9.38
2019-03-12T18:37:52.599Z,9.31
2019-03-12T18:40:25.557Z,9.37
2019-03-12T18:42:54.119Z,9.32
2019-03-12T18:45:31.315Z,9.36
2019-03-12T18:47:59.727Z,9.36
2019-03-12T18:50:28.248Z,9.34
2019-03-12T18:52:56.782Z,9.34
2019-03-12T18:55:31.139Z,9.31
2019-03-12T18:57:59.577Z,9.31
2019-03-12T19:00:28.146Z,9.32
2019-03-12T19:02:56.615Z,9.31
2019-03-12T19:05:28.036Z,9.40
2019-03-12T19:07:55.185Z,9.40
2019-03-12T19:10:23.741Z,9.42
2019-03-12T19:12:52.366Z,9.41
2019-03-12T19:15:20.898Z,9.44
2019-03-12T19:17:49.404Z,9.40
2019-03-12T19:20:18.739Z,9.40
2019-03-12T19:22:47.215Z,9.39
2019-03-12T19:25:18.061Z,9.37
2019-03-12T19:27:58.867Z,9.43
2019-03-12T19:30:18.226Z,9.44
2019-03-12T19:32:48.718Z,9.38
2019-03-12T19:35:20.393Z,9.40
2019-03-12T19:37:49.019Z,9.38
2019-03-12T19:40:20.468Z,9.41
2019-03-12T19:42:48.860Z,9.44
2019-03-12T19:45:17.364Z,9.70
2019-03-12T19:47:45.829Z,9.70
2019-03-12T19:50:19.564Z,9.61
2019-03-12T19:52:48.171Z,9.68
2019-03-12T19:55:28.218Z,9.59
2019-03-12T19:57:56.682Z,9.52
2019-03-12T20:00:26.810Z,9.60
2019-03-12T20:02:55.669Z,9.60
2019-03-12T20:05:24.325Z,9.51
2019-03-12T20:07:52.932Z,9.50
2019-03-12T20:10:36.498Z,9.58
2019-03-12T20:13:17.032Z,9.61
2019-03-12T20:16:08.170Z,9.52
2019-03-12T20:19:13.133Z,9.52
2019-03-12T20:22:04.034Z,9.49
2019-03-12T20:24:52.120Z,9.49
2019-03-12T20:27:32.570Z,9.35
2019-03-12T20:30:04.041Z,9.34
2019-03-12T20:32:50.086Z,9.28
2019-03-12T20:35:52.207Z,9.28
2019-03-12T20:38:41.913Z,9.23
2019-03-12T20:41:32.690Z,9.13
2019-03-12T20:44:06.947Z,9.03
2019-03-12T20:46:59.390Z,8.95
2019-03-12T20:50:04.564Z,8.88
2019-03-12T20:52:51.057Z,8.79
2019-03-12T20:55:51.330Z,8.71
2019-03-12T20:58:56.107Z,8.63
2019-03-12T21:04:00.772Z,8.70
2019-03-12T21:07:04.203Z,8.69
2019-03-12T21:10:08.524Z,8.77
2019-03-12T21:12:45.585Z,8.80
2019-03-12T21:15:36.384Z,8.68
2019-03-12T21:18:28.671Z,8.65
2019-03-12T21:21:23.013Z,8.43
2019-03-12T21:24:01.402Z,8.30
2019-03-12T21:26:45.062Z,8.22
2019-03-12T21:29:42.232Z,8.16
2019-03-12T21:32:11.618Z,8.11
2019-03-12T21:34:40.104Z,8.11
2019-03-12T21:37:08.642Z,8.16
2019-03-12T21:39:37.208Z,8.14
2019-03-12T21:42:06.360Z,8.29
2019-03-12T21:44:35.053Z,8.30
2019-03-12T21:47:03.714Z,8.36
2019-03-12T21:49:32.230Z,8.32
2019-03-12T21:52:00.762Z,8.33
2019-03-12T21:54:29.304Z,8.36
2019-03-12T21:56:57.711Z,8.36
2019-03-12T21:59:26.184Z,8.33
2019-03-12T22:01:54.622Z,8.33
2019-03-12T22:04:23.066Z,8.36
2019-03-12T22:06:51.561Z,8.30
2019-03-12T22:09:19.976Z,8.24
2019-03-12T22:11:48.472Z,8.22
2019-03-12T22:14:16.866Z,8.25
2019-03-12T22:16:46.584Z,8.30
2019-03-12T22:19:17.951Z,8.31
2019-03-12T22:21:57.133Z,8.41
2019-03-12T22:24:25.615Z,8.41
2019-03-12T22:26:54.183Z,8.50
2019-03-12T22:29:22.687Z,9.06
2019-03-12T22:31:51.109Z,9.17
2019-03-12T22:34:19.542Z,9.20
2019-03-12T22:36:47.951Z,9.12
2019-03-12T22:39:16.412Z,9.13
2019-03-12T22:41:45.039Z,9.03
2019-03-12T22:44:13.551Z,9.03
2019-03-12T22:46:41.966Z,8.92
2019-03-12T22:49:10.381Z,9.04
2019-03-12T22:51:38.776Z,9.02
2019-03-12T22:54:07.162Z,9.07
2019-03-12T22:56:35.669Z,9.25
2019-03-12T22:59:04.049Z,9.35
2019-03-12T23:01:32.611Z,9.57
2019-03-12T23:04:01.076Z,9.75
2019-03-12T23:06:29.538Z,9.78
2019-03-12T23:08:58.048Z,9.90
2019-03-12T23:11:26.507Z,10.06
2019-03-12T23:13:54.985Z,10.06
2019-03-12T23:16:23.522Z,10.25
2019-03-12T23:18:52.075Z,10.29
2019-03-12T23:21:20.433Z,10.40
2019-03-12T23:23:48.850Z,10.54
2019-03-12T23:26:17.300Z,10.59
2019-03-12T23:28:45.850Z,10.66
2019-03-12T23:31:14.329Z,10.67
2019-03-12T23:33:45.202Z,10.73
2019-03-12T23:36:13.677Z,10.74
2019-03-12T23:38:42.351Z,10.80
2019-03-12T23:41:10.745Z,10.80
2019-03-12T23:43:39.233Z,10.72
2019-03-12T23:46:07.699Z,10.68
2019-03-12T23:48:36.127Z,10.65
2019-03-12T23:51:04.597Z,10.60
2019-03-12T23:53:33.001Z,10.45
2019-03-12T23:56:01.533Z,10.45
2019-03-12T23:58:31.224Z,10.36
